createdAt,value
2018-03-16T00:01:51.645Z,8.30
2018-03-16T00:04:19.157Z,8.30
2018-03-16T00:06:47.404Z,8.30
2018-03-16T00:09:14.908Z,8.30
2018-03-16T00:11:43.166Z,8.40
2018-03-16T00:14:10.676Z,8.30
2018-03-16T00:16:38.925Z,8.40
2018-03-16T00:19:06.429Z,8.30
2018-03-16T00:21:34.680Z,8.40
2018-03-16T00:24:02.197Z,8.30
2018-03-16T00:26:29.692Z,8.40
2018-03-16T00:28:57.198Z,8.40
2018-03-16T00:31:24.704Z,8.50
2018-03-16T00:33:52.199Z,8.50
2018-03-16T00:36:19.708Z,8.30
2018-03-16T00:38:47.193Z,8.40
2018-03-16T00:41:14.699Z,8.40
2018-03-16T00:43:42.189Z,8.40
2018-03-16T00:46:10.461Z,8.40
2018-03-16T00:48:37.950Z,8.30
2018-03-16T00:51:05.452Z,8.40
2018-03-16T00:53:32.941Z,8.40
2018-03-16T00:56:01.217Z,8.30
2018-03-16T00:58:28.707Z,8.20
2018-03-16T01:00:56.988Z,8.40
2018-03-16T01:03:25.236Z,8.40
2018-03-16T01:05:52.749Z,8.30
2018-03-16T01:08:20.999Z,8.40
2018-03-16T01:10:48.526Z,8.40
2018-03-16T01:13:16.017Z,8.40
2018-03-16T01:15:43.509Z,8.40
2018-03-16T01:18:11.011Z,8.40
2018-03-16T01:20:44.045Z,8.30
2018-03-16T01:23:11.547Z,8.40
2018-03-16T01:25:39.027Z,8.40
2018-03-16T01:28:06.524Z,8.40
2018-03-16T01:30:34.004Z,8.40
2018-03-16T01:33:02.280Z,8.40
2018-03-16T01:35:30.540Z,8.50
2018-03-16T01:37:58.059Z,8.40
2018-03-16T01:40:25.540Z,8.50
2018-03-16T01:42:53.085Z,8.50
2018-03-16T01:45:20.551Z,8.50
2018-03-16T01:47:48.826Z,8.50
2018-03-16T01:50:16.316Z,8.50
2018-03-16T01:53:17.863Z,8.60
2018-03-16T01:55:45.347Z,8.50
2018-03-16T01:58:12.850Z,8.50
2018-03-16T02:00:40.333Z,8.60
2018-03-16T02:03:07.844Z,8.60
2018-03-16T02:05:35.325Z,8.50
2018-03-16T02:08:09.163Z,8.50
2018-03-16T02:10:37.408Z,8.50
2018-03-16T02:13:04.895Z,8.50
2018-03-16T02:15:32.395Z,8.50
2018-03-16T02:17:59.890Z,8.50
2018-03-16T02:20:27.401Z,8.50
2018-03-16T02:22:54.883Z,8.60
2018-03-16T02:25:22.393Z,8.60
2018-03-16T02:27:49.880Z,8.60
2018-03-16T02:30:17.379Z,8.60
2018-03-16T02:32:44.861Z,8.60
2018-03-16T02:35:12.372Z,8.60
2018-03-16T02:37:39.860Z,8.60
2018-03-16T02:40:07.372Z,8.60
2018-03-16T02:42:34.852Z,8.50
2018-03-16T02:45:03.120Z,8.50
2018-03-16T02:47:30.632Z,8.50
2018-03-16T02:49:58.131Z,8.60
2018-03-16T02:52:25.650Z,8.60
2018-03-16T02:54:53.124Z,8.60
2018-03-16T02:57:21.405Z,8.50
2018-03-16T02:59:49.647Z,8.50
2018-03-16T03:02:17.149Z,8.50
2018-03-16T03:04:44.636Z,8.60
2018-03-16T03:07:12.911Z,8.50
2018-03-16T03:09:40.391Z,8.50
2018-03-16T03:12:07.888Z,8.50
2018-03-16T03:14:35.368Z,8.50
2018-03-16T03:17:02.892Z,8.50
2018-03-16T03:19:30.383Z,8.60
2018-03-16T03:21:58.650Z,8.60
2018-03-16T03:24:26.152Z,8.60
2018-03-16T03:26:53.627Z,8.60
2018-03-16T03:29:21.123Z,8.60
2018-03-16T03:31:49.372Z,8.50
2018-03-16T03:34:17.672Z,8.50
2018-03-16T03:36:45.140Z,8.40
2018-03-16T03:39:12.648Z,8.40
2018-03-16T03:41:40.136Z,8.40
2018-03-16T03:44:07.636Z,8.40
2018-03-16T03:46:35.885Z,8.30
2018-03-16T03:49:03.391Z,8.30
2018-03-16T03:51:31.635Z,8.40
2018-03-16T03:53:59.151Z,8.40
2018-03-16T03:56:27.405Z,8.30
2018-03-16T03:58:54.933Z,8.30
2018-03-16T04:01:22.419Z,8.30
2018-03-16T04:03:49.899Z,8.40
2018-03-16T04:06:17.396Z,8.40
2018-03-16T04:08:44.883Z,8.50
2018-03-16T04:11:12.388Z,8.50
2018-03-16T04:13:39.879Z,8.50
2018-03-16T04:16:07.380Z,8.60
2018-03-16T04:18:34.864Z,8.60
2018-03-16T04:21:03.341Z,8.50
2018-03-16T04:23:30.828Z,8.50
2018-03-16T04:25:59.112Z,8.50
2018-03-16T04:28:26.597Z,8.40
2018-03-16T04:30:54.859Z,8.50
2018-03-16T04:33:22.339Z,8.40
2018-03-16T04:35:49.847Z,8.50
2018-03-16T04:38:17.332Z,8.30
2018-03-16T04:40:44.813Z,8.40
2018-03-16T04:43:12.311Z,8.40
2018-03-16T04:45:39.795Z,8.40
2018-03-16T04:48:07.296Z,8.40
2018-03-16T04:50:34.781Z,8.40
2018-03-16T04:53:02.282Z,8.40
2018-03-16T04:55:29.771Z,8.40
2018-03-16T04:57:57.279Z,8.40
2018-03-16T05:00:24.759Z,8.40
2018-03-16T05:02:53.031Z,8.40
2018-03-16T05:05:20.515Z,8.40
2018-03-16T05:07:48.015Z,8.30
2018-03-16T05:10:15.495Z,8.40
2018-03-16T05:12:43.005Z,8.40
2018-03-16T05:15:11.257Z,8.50
2018-03-16T05:17:38.759Z,8.40
2018-03-16T05:20:07.011Z,8.50
2018-03-16T05:22:34.511Z,8.40
2018-03-16T05:25:02.760Z,8.50
2018-03-16T05:27:30.254Z,8.50
2018-03-16T05:29:57.771Z,8.50
2018-03-16T05:32:25.247Z,8.30
2018-03-16T05:34:52.745Z,8.30
2018-03-16T05:37:20.237Z,8.30
2018-03-16T05:39:47.740Z,8.40
2018-03-16T05:42:15.227Z,8.40
2018-03-16T05:44:42.728Z,8.40
2018-03-16T05:47:10.212Z,8.40
2018-03-16T05:49:37.711Z,8.40
2018-03-16T05:52:05.960Z,8.40
2018-03-16T05:54:33.455Z,8.40
2018-03-16T05:57:01.707Z,8.40
2018-03-16T05:59:29.192Z,8.30
2018-03-16T06:01:56.701Z,8.50
2018-03-16T06:04:24.188Z,8.40
2018-03-16T06:06:51.703Z,8.40
2018-03-16T06:09:19.188Z,8.40
2018-03-16T06:11:46.691Z,8.30
2018-03-16T06:14:14.185Z,8.40
2018-03-16T06:16:41.688Z,8.40
2018-03-16T06:19:09.167Z,8.40
2018-03-16T06:21:36.680Z,8.30
2018-03-16T06:24:04.203Z,8.30
2018-03-16T06:26:31.688Z,8.30
2018-03-16T06:28:59.955Z,8.20
2018-03-16T06:31:27.435Z,8.10
2018-03-16T06:33:54.948Z,8.10
2018-03-16T06:36:22.432Z,8.20
2018-03-16T06:38:49.936Z,8.20
2018-03-16T06:41:17.420Z,8.10
2018-03-16T06:43:47.623Z,8.20
2018-03-16T06:46:15.100Z,8.10
2018-03-16T06:48:42.600Z,8.10
2018-03-16T06:51:10.855Z,8.20
2018-03-16T06:53:38.360Z,8.10
2018-03-16T06:56:06.604Z,8.20
2018-03-16T06:58:34.116Z,8.10
2018-03-16T07:01:02.363Z,8.00
2018-03-16T07:03:29.867Z,8.00
2018-03-16T07:05:57.355Z,8.10
2018-03-16T07:08:26.641Z,8.10
2018-03-16T07:10:54.127Z,8.00
2018-03-16T07:13:22.432Z,8.00
2018-03-16T07:15:49.961Z,8.00
2018-03-16T07:18:17.455Z,8.10
2018-03-16T07:20:45.728Z,8.20
2018-03-16T07:23:32.452Z,8.10
2018-03-16T07:25:59.965Z,8.10
2018-03-16T07:28:38.285Z,8.20
2018-03-16T07:31:05.799Z,8.20
2018-03-16T07:33:33.288Z,8.20
2018-03-16T07:36:00.784Z,8.20
2018-03-16T07:38:29.037Z,8.20
2018-03-16T07:40:56.536Z,8.10
2018-03-16T07:43:34.455Z,8.20
2018-03-16T07:46:02.718Z,8.20
2018-03-16T07:48:30.201Z,8.20
2018-03-16T07:50:58.476Z,8.20
2018-03-16T07:53:32.064Z,8.10
2018-03-16T07:56:06.680Z,8.20
2018-03-16T07:58:34.180Z,8.20
2018-03-16T08:03:55.164Z,8.20
2018-03-16T08:06:23.438Z,8.20
2018-03-16T08:08:50.937Z,8.10
2018-03-16T08:11:19.213Z,8.20
2018-03-16T08:13:47.460Z,8.20
2018-03-16T08:16:14.971Z,8.20
2018-03-16T08:18:43.224Z,8.20
2018-03-16T08:21:10.725Z,8.20
2018-03-16T08:23:58.082Z,8.20
2018-03-16T08:26:25.563Z,8.20
2018-03-16T08:28:53.063Z,8.30
2018-03-16T08:31:20.557Z,8.30
2018-03-16T08:33:48.065Z,8.20
2018-03-16T08:36:17.792Z,8.30
2018-03-16T08:38:51.781Z,8.30
2018-03-16T08:41:19.272Z,8.30
2018-03-16T08:43:54.036Z,8.20
2018-03-16T08:46:21.516Z,8.20
2018-03-16T08:48:49.016Z,8.30
2018-03-16T08:51:16.504Z,8.30
2018-03-16T08:53:44.016Z,8.40
2018-03-16T08:56:11.517Z,8.40
2018-03-16T08:58:39.024Z,8.30
2018-03-16T09:01:06.512Z,8.30
2018-03-16T09:03:34.040Z,8.40
2018-03-16T09:06:01.530Z,8.40
2018-03-16T09:08:29.036Z,8.40
2018-03-16T09:10:56.520Z,8.50
2018-03-16T09:13:24.025Z,8.50
2018-03-16T09:15:51.516Z,8.50
2018-03-16T09:18:19.780Z,8.40
2018-03-16T09:20:47.262Z,8.40
2018-03-16T09:23:14.768Z,8.40
2018-03-16T09:25:42.261Z,8.40
2018-03-16T09:28:09.743Z,8.40
2018-03-16T09:30:37.262Z,8.40
2018-03-16T09:33:05.520Z,8.50
2018-03-16T09:35:33.028Z,8.50
2018-03-16T09:38:01.272Z,8.60
2018-03-16T09:40:28.787Z,8.50
2018-03-16T09:42:57.028Z,8.60
2018-03-16T09:45:24.537Z,8.50
2018-03-16T09:47:52.784Z,8.80
2018-03-16T09:50:20.284Z,8.70
2018-03-16T09:52:47.767Z,8.90
2018-03-16T09:55:27.940Z,9.00
2018-03-16T09:57:56.188Z,9.10
2018-03-16T10:00:23.687Z,9.10
2018-03-16T10:02:51.933Z,9.40
2018-03-16T10:05:19.440Z,9.30
2018-03-16T10:07:47.685Z,9.80
2018-03-16T10:10:15.173Z,9.70
2018-03-16T10:12:42.682Z,9.90
2018-03-16T10:15:10.932Z,10.00
2018-03-16T10:17:38.434Z,9.90
2018-03-16T10:20:06.679Z,10.00
2018-03-16T10:22:34.183Z,10.00
2018-03-16T10:25:02.435Z,10.00
2018-03-16T10:27:29.941Z,9.90
2018-03-16T10:29:58.195Z,10.10
2018-03-16T10:32:25.704Z,10.00
2018-03-16T10:34:53.961Z,10.40
2018-03-16T10:37:21.470Z,10.30
2018-03-16T10:39:49.767Z,10.40
2018-03-16T10:42:17.251Z,10.40
2018-03-16T10:44:44.732Z,10.50
2018-03-16T10:47:12.224Z,10.40
2018-03-16T10:49:39.736Z,10.30
2018-03-16T10:52:07.991Z,10.40
2018-03-16T10:54:35.492Z,10.30
2018-03-16T10:57:04.751Z,10.50
2018-03-16T10:59:32.272Z,10.40
2018-03-16T11:02:06.075Z,10.60
2018-03-16T11:04:39.319Z,10.60
2018-03-16T11:07:08.576Z,10.60
2018-03-16T11:09:36.092Z,10.60
2018-03-16T11:12:04.428Z,10.40
2018-03-16T11:14:31.937Z,10.40
2018-03-16T11:17:00.187Z,10.30
2018-03-16T11:19:27.692Z,10.30
2018-03-16T11:21:55.947Z,10.30
2018-03-16T11:24:23.466Z,10.20
2018-03-16T11:26:51.719Z,10.10
2018-03-16T11:29:19.227Z,10.10
2018-03-16T11:31:47.475Z,10.10
2018-03-16T11:34:14.984Z,10.00
2018-03-16T11:36:43.235Z,10.20
2018-03-16T11:39:10.720Z,10.10
2018-03-16T11:41:38.232Z,10.20
2018-03-16T11:44:05.723Z,10.20
2018-03-16T11:46:34.005Z,10.30
2018-03-16T11:49:01.497Z,10.20
2018-03-16T11:51:29.012Z,10.30
2018-03-16T11:53:56.545Z,10.30
2018-03-16T11:56:24.082Z,10.30
2018-03-16T11:58:51.568Z,10.20
2018-03-16T12:01:19.081Z,10.20
2018-03-16T12:03:47.332Z,10.20
2018-03-16T12:06:14.840Z,10.10
2018-03-16T12:08:43.100Z,10.10
2018-03-16T12:11:10.629Z,10.00
2018-03-16T12:13:38.131Z,10.00
2018-03-16T12:16:05.616Z,9.90
2018-03-16T12:18:33.128Z,10.00
2018-03-16T12:21:00.609Z,9.90
2018-03-16T12:23:28.109Z,9.90
2018-03-16T12:25:55.584Z,9.90
2018-03-16T12:28:23.100Z,9.90
2018-03-16T12:30:51.360Z,10.00
2018-03-16T12:33:18.869Z,9.90
2018-03-16T12:35:46.353Z,10.00
2018-03-16T12:38:13.878Z,10.10
2018-03-16T12:40:42.333Z,10.10
2018-03-16T12:43:09.856Z,10.20
2018-03-16T12:45:38.112Z,10.10
2018-03-16T12:48:05.607Z,10.10
2018-03-16T12:50:33.892Z,10.10
2018-03-16T12:53:01.388Z,10.00
2018-03-16T12:55:28.908Z,10.00
2018-03-16T12:57:56.403Z,10.00
2018-03-16T13:00:24.687Z,10.10
2018-03-16T13:02:52.183Z,10.00
2018-03-16T13:05:19.692Z,10.10
2018-03-16T13:07:47.185Z,10.10
2018-03-16T13:10:14.691Z,10.10
2018-03-16T13:12:42.214Z,10.10
2018-03-16T13:15:09.757Z,10.20
2018-03-16T13:17:37.241Z,10.30
2018-03-16T13:20:04.731Z,10.40
2018-03-16T13:22:32.248Z,10.60
2018-03-16T13:25:02.412Z,10.60
2018-03-16T13:27:29.962Z,10.60
2018-03-16T13:29:58.191Z,10.90
2018-03-16T13:32:25.706Z,10.80
2018-03-16T13:34:53.961Z,11.00
2018-03-16T13:37:21.469Z,10.90
2018-03-16T13:39:48.980Z,11.00
2018-03-16T13:42:16.496Z,11.00
2018-03-16T13:44:43.993Z,11.10
2018-03-16T13:47:11.493Z,11.10
2018-03-16T13:49:38.985Z,11.00
2018-03-16T13:52:06.521Z,11.00
2018-03-16T13:54:34.012Z,11.00
2018-03-16T13:57:01.509Z,11.10
2018-03-16T13:59:29.019Z,11.10
2018-03-16T14:01:56.504Z,11.00
2018-03-16T14:04:24.007Z,10.80
2018-03-16T14:06:51.488Z,10.70
2018-03-16T14:09:19.021Z,10.70
2018-03-16T14:11:58.541Z,10.70
2018-03-16T14:14:26.053Z,10.70
2018-03-16T14:16:53.546Z,10.80
2018-03-16T14:19:21.067Z,10.60
2018-03-16T14:21:48.556Z,10.50
2018-03-16T14:24:16.049Z,10.50
2018-03-16T14:26:43.562Z,10.50
2018-03-16T14:29:11.057Z,10.60
2018-03-16T14:31:38.573Z,10.60
2018-03-16T14:34:06.047Z,10.50
2018-03-16T14:36:33.556Z,10.40
2018-03-16T14:39:01.044Z,10.30
2018-03-16T14:41:28.846Z,10.30
2018-03-16T14:43:56.596Z,10.30
2018-03-16T14:46:24.115Z,10.30
2018-03-16T14:48:52.371Z,10.30
2018-03-16T14:51:19.882Z,10.30
2018-03-16T14:53:48.135Z,10.20
2018-03-16T14:56:15.696Z,10.20
2018-03-16T14:58:43.204Z,10.20
2018-03-16T15:01:10.708Z,10.30
2018-03-16T15:03:38.205Z,10.30
2018-03-16T15:06:05.715Z,10.30
2018-03-16T15:08:33.210Z,10.40
2018-03-16T15:11:00.692Z,10.40
2018-03-16T15:13:28.256Z,10.40
2018-03-16T15:15:55.812Z,10.40
2018-03-16T15:18:24.188Z,10.60
2018-03-16T15:20:51.765Z,10.50
2018-03-16T15:23:20.040Z,10.50
2018-03-16T15:25:47.536Z,10.50
2018-03-16T15:28:15.051Z,10.50
2018-03-16T15:30:42.533Z,10.60
2018-03-16T15:33:10.044Z,10.60
2018-03-16T15:35:38.296Z,10.60
2018-03-16T15:38:05.829Z,10.60
2018-03-16T15:40:34.250Z,10.50
2018-03-16T15:43:01.756Z,10.40
2018-03-16T15:45:30.008Z,10.30
2018-03-16T15:47:57.517Z,10.30
2018-03-16T15:50:25.788Z,10.30
2018-03-16T15:52:55.099Z,10.20
2018-03-16T15:55:22.584Z,10.20
2018-03-16T15:57:50.076Z,10.30
2018-03-16T16:00:18.353Z,10.10
2018-03-16T16:02:46.610Z,10.00
2018-03-16T16:05:14.123Z,10.00
2018-03-16T16:07:41.611Z,10.00
2018-03-16T16:10:09.124Z,9.90
2018-03-16T16:12:36.616Z,9.90
2018-03-16T16:15:04.922Z,9.70
2018-03-16T16:17:33.179Z,9.70
2018-03-16T16:20:00.688Z,9.60
2018-03-16T16:22:28.180Z,9.60
2018-03-16T16:24:55.698Z,9.60
2018-03-16T16:27:23.188Z,9.60
2018-03-16T16:29:50.701Z,9.60
2018-03-16T16:32:18.191Z,9.70
2018-03-16T16:34:45.695Z,9.70
2018-03-16T16:37:13.942Z,9.70
2018-03-16T16:39:41.431Z,9.70
2018-03-16T16:42:08.946Z,9.60
2018-03-16T16:44:36.433Z,9.50
2018-03-16T16:47:03.941Z,9.40
2018-03-16T16:49:31.441Z,9.40
2018-03-16T16:51:59.725Z,9.60
2018-03-16T16:54:27.993Z,9.50
2018-03-16T16:56:55.512Z,9.50
2018-03-16T16:59:22.995Z,9.50
2018-03-16T17:01:50.504Z,9.40
2018-03-16T17:04:17.988Z,9.40
2018-03-16T17:06:46.257Z,9.20
2018-03-16T17:09:13.744Z,9.20
2018-03-16T17:11:42.020Z,9.30
2018-03-16T17:14:09.508Z,9.20
2018-03-16T17:16:37.776Z,9.20
2018-03-16T17:19:05.276Z,9.10
2018-03-16T17:21:32.781Z,9.10
2018-03-16T17:24:00.264Z,9.10
2018-03-16T17:26:27.777Z,9.00
2018-03-16T17:28:55.257Z,8.90
2018-03-16T17:31:22.764Z,8.80
2018-03-16T17:33:50.252Z,8.80
2018-03-16T17:36:17.744Z,8.80
2018-03-16T17:38:46.011Z,8.90
2018-03-16T17:41:13.492Z,8.90
2018-03-16T17:43:41.003Z,9.00
2018-03-16T17:46:08.495Z,8.90
2018-03-16T17:48:35.991Z,8.80
2018-03-16T17:51:03.486Z,8.80
2018-03-16T17:53:32.098Z,8.80
2018-03-16T17:55:59.586Z,8.80
2018-03-16T17:58:27.091Z,8.80
2018-03-16T18:00:54.575Z,8.80
2018-03-16T18:03:22.253Z,8.70
2018-03-16T18:05:49.748Z,8.80
2018-03-16T18:08:18.005Z,8.60
2018-03-16T18:10:45.503Z,8.50
2018-03-16T18:13:13.756Z,8.60
2018-03-16T18:15:41.260Z,8.50
2018-03-16T18:18:09.510Z,8.50
2018-03-16T18:20:37.025Z,8.50
2018-03-16T18:23:04.528Z,8.50
2018-03-16T18:25:32.044Z,8.50
2018-03-16T18:28:06.319Z,8.40
2018-03-16T18:30:33.852Z,8.40
2018-03-16T18:33:02.104Z,8.30
2018-03-16T18:35:29.608Z,8.30
2018-03-16T18:37:57.097Z,8.40
2018-03-16T18:40:24.614Z,8.40
2018-03-16T18:42:52.096Z,8.30
2018-03-16T18:45:19.597Z,8.30
2018-03-16T18:47:47.853Z,8.20
2018-03-16T18:50:15.368Z,8.10
2018-03-16T18:52:42.848Z,8.20
2018-03-16T18:55:10.337Z,8.10
2018-03-16T18:57:37.841Z,8.10
2018-03-16T19:00:05.329Z,8.20
2018-03-16T19:02:33.617Z,8.10
2018-03-16T19:05:01.885Z,7.90
2018-03-16T19:07:37.913Z,7.90
2018-03-16T19:10:05.393Z,7.90
2018-03-16T19:12:32.897Z,8.00
2018-03-16T19:15:00.384Z,8.00
2018-03-16T19:17:28.856Z,8.00
2018-03-16T19:19:56.340Z,7.90
2018-03-16T19:22:23.854Z,7.90
2018-03-16T19:24:51.345Z,7.90
2018-03-16T19:27:18.846Z,7.90
2018-03-16T19:29:46.350Z,7.80
2018-03-16T19:32:13.852Z,7.70
2018-03-16T19:34:41.331Z,7.70
2018-03-16T19:37:08.841Z,7.70
2018-03-16T19:39:36.325Z,7.80
2018-03-16T19:42:03.828Z,7.80
2018-03-16T19:44:31.313Z,7.80
2018-03-16T19:46:58.800Z,7.70
2018-03-16T19:49:26.309Z,7.70
2018-03-16T19:51:54.557Z,7.70
2018-03-16T19:54:22.056Z,7.60
2018-03-16T19:56:50.307Z,7.60
2018-03-16T19:59:17.820Z,7.50
2018-03-16T20:01:46.068Z,7.60
2018-03-16T20:04:13.576Z,7.60
2018-03-16T20:06:41.829Z,7.60
2018-03-16T20:09:09.328Z,7.50
2018-03-16T20:11:37.584Z,7.60
2018-03-16T20:14:06.089Z,7.50
2018-03-16T20:16:33.580Z,7.60
2018-03-16T20:19:01.087Z,7.50
2018-03-16T20:21:28.584Z,7.50
2018-03-16T20:23:56.104Z,7.40
2018-03-16T20:26:23.592Z,7.40
2018-03-16T20:28:51.109Z,7.50
2018-03-16T20:31:18.626Z,7.40
2018-03-16T20:33:46.168Z,7.30
2018-03-16T20:36:13.655Z,7.20
2018-03-16T20:38:41.904Z,7.20
2018-03-16T20:41:09.412Z,7.20
2018-03-16T20:43:37.660Z,7.20
2018-03-16T20:46:05.214Z,7.10
2018-03-16T20:48:32.680Z,7.10
2018-03-16T20:51:00.212Z,6.90
2018-03-16T20:53:28.460Z,6.90
2018-03-16T20:55:55.974Z,6.90
2018-03-16T20:58:23.470Z,6.80
2018-03-16T21:00:50.984Z,6.70
2018-03-16T21:03:18.472Z,6.70
2018-03-16T21:05:46.748Z,6.90
2018-03-16T21:08:14.224Z,6.80
2018-03-16T21:10:41.731Z,6.70
2018-03-16T21:13:09.216Z,6.70
2018-03-16T21:15:36.720Z,6.70
2018-03-16T21:18:04.216Z,6.60
2018-03-16T21:20:33.481Z,6.60
2018-03-16T21:23:00.992Z,6.50
2018-03-16T21:25:29.253Z,6.50
2018-03-16T21:27:56.761Z,6.40
2018-03-16T21:30:25.012Z,6.30
2018-03-16T21:32:52.514Z,6.30
2018-03-16T21:35:20.769Z,6.30
2018-03-16T21:37:48.281Z,6.20
2018-03-16T21:40:16.532Z,6.20
2018-03-16T21:42:44.045Z,6.20
2018-03-16T21:45:11.528Z,6.20
2018-03-16T21:47:39.033Z,6.10
2018-03-16T21:50:06.516Z,6.20
2018-03-16T21:52:34.032Z,6.10
2018-03-16T21:55:01.541Z,6.00
2018-03-16T21:57:29.032Z,6.10
2018-03-16T21:59:56.541Z,6.10
2018-03-16T22:02:24.029Z,6.10
2018-03-16T22:04:51.529Z,6.00
2018-03-16T22:07:19.020Z,5.90
2018-03-16T22:09:47.300Z,5.90
2018-03-16T22:12:14.787Z,5.90
2018-03-16T22:14:43.061Z,5.90
2018-03-16T22:17:11.329Z,5.80
2018-03-16T22:19:38.849Z,5.70
2018-03-16T22:22:08.312Z,5.80
2018-03-16T22:24:35.815Z,5.70
2018-03-16T22:27:13.762Z,5.70
2018-03-16T22:29:41.312Z,5.70
2018-03-16T22:32:09.560Z,5.50
2018-03-16T22:34:37.039Z,5.40
2018-03-16T22:37:04.540Z,5.40
2018-03-16T22:39:32.792Z,5.50
2018-03-16T22:42:00.296Z,5.40
2018-03-16T22:44:28.556Z,5.40
2018-03-16T22:46:56.055Z,5.30
2018-03-16T22:49:24.308Z,5.50
2018-03-16T22:51:51.816Z,5.40
2018-03-16T22:54:20.063Z,5.30
2018-03-16T22:56:47.600Z,5.30
2018-03-16T22:59:15.827Z,5.30
2018-03-16T23:01:43.333Z,5.20
2018-03-16T23:04:11.576Z,5.20
2018-03-16T23:06:39.089Z,5.20
2018-03-16T23:09:07.344Z,5.30
2018-03-16T23:11:34.843Z,5.20
2018-03-16T23:14:03.095Z,5.10
2018-03-16T23:16:30.602Z,5.00
2018-03-16T23:18:58.852Z,5.10
2018-03-16T23:21:26.336Z,5.00
2018-03-16T23:23:54.820Z,5.00
2018-03-16T23:26:22.296Z,5.00
2018-03-16T23:28:49.810Z,5.00
2018-03-16T23:31:17.297Z,5.10
2018-03-16T23:33:44.799Z,5.10
2018-03-16T23:36:12.286Z,5.10
2018-03-16T23:38:39.788Z,5.00
2018-03-16T23:41:08.042Z,5.00
2018-03-16T23:43:35.544Z,5.00
2018-03-16T23:46:03.800Z,5.00
2018-03-16T23:48:31.310Z,4.90
2018-03-16T23:50:58.803Z,5.00
2018-03-16T23:53:26.309Z,4.90
2018-03-16T23:55:53.788Z,4.90
2018-03-16T23:58:21.294Z,4.80
